Airfield :
LOGIN :

Register | Disclaimer

   EN    FR    IT 

 










Legend :    VFR   Marginal VFR   IFR   Intensive IFR   Very Intensive IFR
Visi :
Ceiling :
>= 8 km
>= 3000ft
5 to 8 km
1000 to 3000 ft
1500m to 5 km
500 to 1000 ft
800 to 1500m
200 to 500 ft
< 800m
< 200 ft
Symbols :   Thunderstorms  Fog  Heavy snow  Heavy precipitations  Wind > 20 kt
SIGMETs :     Misc.  Thunderstorms  Icing  Turbulence  Mountain Waves  Volcanic Ashes






- Airport Elevation : 1000 ft
- IATA code : PEV


LHPP - Pécs Pogany

CURRENT METAR :
  • 282145Z AUTO 04004KT CAVOK 12/06 Q1019

EXPIRED METARs :
  • 282115Z AUTO 04004KT CAVOK 12/07 Q1019
  • 282045Z AUTO 02004KT CAVOK 11/07 Q1019
  • 282015Z AUTO 02004KT CAVOK 11/08 Q1019
  • 281945Z AUTO 35003KT CAVOK 12/08 Q1019
  • 281915Z AUTO 34005KT CAVOK 11/08 Q1019
  • 281845Z AUTO 33005KT CAVOK 11/07 Q1019
  • 281815Z AUTO 33003KT CAVOK 12/08 Q1019
  • 281745Z AUTO 33003KT CAVOK 13/08 Q1019
  • 281715Z AUTO 31002KT CAVOK 13/08 Q1018
  • 281645Z AUTO 32003KT CAVOK 13/08 Q1018

TAF TAF LHPP
Valid from the 28 at 15:00 until the 29 at 00:00 UTC


281415Z 2815/2824 VRB03KT CAVOK



MET'MAP, your aeronautical weather chart ! - Copyright ORBIFLY December 2007 - Disclaimer

ORBIFLY MET'MAP TEAM :

Programming & Development : Alexandra Zaïnal
Original concept : Baudouin d'Aumeries
Technical & hardware support : Manuel Goepfert
Assistance : Marc-Olivier Méhu




SOURCES & CREDITS :

   NOAA